createdAt,value
2024-01-24T00:02:25.069Z,7.60
2024-01-24T00:04:51.780Z,7.50
2024-01-24T00:07:18.516Z,6.32
2024-01-24T00:09:45.293Z,5.57
2024-01-24T00:12:13.035Z,6.47
2024-01-24T00:14:39.878Z,6.50
2024-01-24T00:17:06.531Z,10.82
2024-01-24T00:19:33.348Z,6.13
2024-01-24T00:22:00.071Z,8.77
2024-01-24T00:24:27.064Z,6.95
2024-01-24T00:26:53.762Z,7.40
2024-01-24T00:29:20.469Z,6.18
2024-01-24T00:31:48.473Z,7.45
2024-01-24T00:34:15.397Z,5.95
2024-01-24T00:36:42.365Z,8.43
2024-01-24T00:39:09.181Z,6.17
2024-01-24T00:41:36.015Z,7.40
2024-01-24T00:44:02.727Z,6.90
2024-01-24T00:46:29.596Z,5.88
2024-01-24T00:48:56.356Z,6.38
2024-01-24T00:51:23.158Z,8.30
2024-01-24T00:53:51.277Z,8.38
2024-01-24T00:56:18.056Z,6.82
2024-01-24T00:58:44.680Z,8.60
2024-01-24T01:01:11.443Z,8.02
2024-01-24T01:03:38.253Z,5.83
2024-01-24T01:06:05.754Z,6.32
2024-01-24T01:08:32.430Z,7.28
2024-01-24T01:10:59.098Z,7.18
2024-01-24T01:13:25.868Z,9.07
2024-01-24T01:15:52.776Z,9.30
2024-01-24T01:18:19.529Z,6.88
2024-01-24T01:20:46.201Z,9.60
2024-01-24T01:23:13.037Z,8.88
2024-01-24T01:25:39.728Z,6.78
2024-01-24T01:28:06.655Z,7.37
2024-01-24T01:30:33.558Z,6.60
2024-01-24T01:33:00.299Z,6.07
2024-01-24T01:35:29.848Z,5.72
2024-01-24T01:37:56.603Z,6.93
2024-01-24T01:40:23.444Z,7.00
2024-01-24T01:42:50.198Z,5.95
2024-01-24T01:45:17.088Z,5.72
2024-01-24T01:47:44.602Z,5.72
2024-01-24T01:50:14.254Z,8.40
2024-01-24T01:52:42.994Z,7.63
2024-01-24T01:55:13.001Z,6.40
2024-01-24T01:57:43.629Z,7.85
2024-01-24T02:00:11.982Z,7.20
2024-01-24T02:02:38.863Z,6.07
2024-01-24T02:05:05.947Z,7.13
2024-01-24T02:07:32.806Z,6.65
2024-01-24T02:09:59.680Z,6.50
2024-01-24T02:12:26.432Z,4.18
2024-01-24T02:14:53.326Z,6.47
2024-01-24T02:17:20.001Z,5.47
2024-01-24T02:19:46.856Z,8.13
2024-01-24T02:22:13.622Z,6.75
2024-01-24T02:24:40.331Z,5.60
2024-01-24T02:27:07.042Z,5.82
2024-01-24T02:29:33.792Z,6.13
2024-01-24T02:32:00.576Z,6.88
2024-01-24T02:34:27.369Z,7.45
2024-01-24T02:36:54.146Z,6.47
2024-01-24T02:39:21.236Z,8.38
2024-01-24T02:41:47.970Z,6.97
2024-01-24T02:44:14.611Z,7.22
2024-01-24T02:46:41.521Z,5.90
2024-01-24T02:49:08.263Z,6.15
2024-01-24T02:51:35.047Z,7.60
2024-01-24T02:54:01.707Z,5.67
2024-01-24T02:56:28.441Z,7.57
2024-01-24T02:58:55.487Z,5.18
2024-01-24T03:01:22.372Z,6.68
2024-01-24T03:03:49.279Z,5.72
2024-01-24T03:06:16.098Z,4.23
2024-01-24T03:08:50.193Z,5.22
2024-01-24T03:11:17.358Z,6.82
2024-01-24T03:13:44.207Z,5.97
2024-01-24T03:16:10.960Z,5.28
2024-01-24T03:18:38.292Z,7.53
2024-01-24T03:21:06.629Z,5.30
2024-01-24T03:23:33.433Z,6.22
2024-01-24T03:26:00.185Z,7.32
2024-01-24T03:28:26.866Z,5.53
2024-01-24T03:30:53.780Z,6.00
2024-01-24T03:33:20.691Z,7.20
2024-01-24T03:35:47.527Z,8.00
2024-01-24T03:38:14.178Z,5.88
2024-01-24T03:40:41.073Z,4.63
2024-01-24T03:43:07.960Z,7.30
2024-01-24T03:45:34.798Z,7.03
2024-01-24T03:48:01.694Z,6.57
2024-01-24T03:50:28.457Z,5.50
2024-01-24T03:52:55.133Z,4.18
2024-01-24T03:55:22.000Z,5.90
2024-01-24T03:57:48.753Z,5.72
2024-01-24T04:00:16.430Z,4.55
2024-01-24T04:02:43.183Z,4.43
2024-01-24T04:05:10.061Z,4.22
2024-01-24T04:07:36.814Z,6.90
2024-01-24T04:10:04.005Z,4.93
2024-01-24T04:12:31.505Z,7.22
2024-01-24T04:14:58.840Z,4.32
2024-01-24T04:17:25.680Z,6.20
2024-01-24T04:19:52.442Z,5.40
2024-01-24T04:22:19.172Z,5.03
2024-01-24T04:24:46.012Z,5.80
2024-01-24T04:27:12.727Z,4.20
2024-01-24T04:29:39.456Z,3.88
2024-01-24T04:32:06.574Z,5.37
2024-01-24T04:34:33.313Z,4.63
2024-01-24T04:37:00.166Z,4.53
2024-01-24T04:39:26.936Z,4.55
2024-01-24T04:41:59.056Z,5.18
2024-01-24T04:44:28.616Z,5.97
2024-01-24T04:46:55.297Z,5.80
2024-01-24T04:49:31.003Z,4.97
2024-01-24T04:52:09.622Z,5.43
2024-01-24T04:54:36.859Z,6.25
2024-01-24T04:57:04.106Z,4.43
2024-01-24T04:59:33.332Z,2.97
2024-01-24T05:02:04.865Z,4.22
2024-01-24T05:04:31.577Z,3.08
2024-01-24T05:06:58.409Z,4.50
2024-01-24T05:09:25.194Z,4.80
2024-01-24T05:11:51.904Z,4.50
2024-01-24T05:14:18.681Z,4.22
2024-01-24T05:16:45.453Z,5.75
2024-01-24T05:19:12.491Z,4.97
2024-01-24T05:21:43.153Z,5.27
2024-01-24T05:24:11.442Z,3.53
2024-01-24T05:26:38.645Z,4.10
2024-01-24T05:29:06.001Z,4.43
2024-01-24T05:31:32.740Z,3.33
2024-01-24T05:33:59.552Z,5.53
2024-01-24T05:36:26.299Z,5.10
2024-01-24T05:38:53.126Z,3.78
2024-01-24T05:41:19.833Z,4.28
2024-01-24T05:43:46.583Z,3.95
2024-01-24T05:46:13.320Z,3.57
2024-01-24T05:48:40.100Z,5.25
2024-01-24T05:51:06.867Z,5.22
2024-01-24T05:53:33.497Z,4.30
2024-01-24T05:56:00.197Z,5.20
2024-01-24T05:58:28.281Z,4.10
2024-01-24T06:00:55.086Z,4.88
2024-01-24T06:03:21.821Z,4.93
2024-01-24T06:05:48.619Z,4.15
2024-01-24T06:08:15.790Z,4.03
2024-01-24T06:10:42.570Z,4.87
2024-01-24T06:13:09.519Z,3.63
2024-01-24T06:15:36.246Z,4.25
2024-01-24T06:18:03.033Z,4.78
2024-01-24T06:20:29.762Z,3.65
2024-01-24T06:22:56.590Z,4.10
2024-01-24T06:25:25.784Z,4.05
2024-01-24T06:27:52.588Z,3.65
2024-01-24T06:30:23.067Z,4.50
2024-01-24T06:32:51.126Z,4.22
2024-01-24T06:35:17.910Z,4.23
2024-01-24T06:37:44.625Z,3.58
2024-01-24T06:40:11.639Z,3.83
2024-01-24T06:42:38.996Z,5.30
2024-01-24T06:45:06.064Z,3.47
2024-01-24T06:47:32.922Z,3.97
2024-01-24T06:49:59.685Z,3.70
2024-01-24T06:52:29.495Z,5.00
2024-01-24T06:54:58.029Z,4.22
2024-01-24T06:57:24.995Z,4.97
2024-01-24T06:59:51.898Z,4.33
2024-01-24T07:02:18.747Z,5.20
2024-01-24T07:04:45.647Z,4.68
2024-01-24T07:07:12.546Z,3.92
2024-01-24T07:09:39.513Z,4.72
2024-01-24T07:12:06.792Z,4.50
2024-01-24T07:14:33.798Z,5.88
2024-01-24T07:17:00.718Z,2.55
2024-01-24T07:19:27.679Z,3.90
2024-01-24T07:21:54.679Z,5.80
2024-01-24T07:24:21.586Z,2.97
2024-01-24T07:26:48.398Z,4.47
2024-01-24T07:29:16.375Z,5.22
2024-01-24T07:31:43.069Z,5.65
2024-01-24T07:34:09.935Z,3.38
2024-01-24T07:36:36.722Z,3.40
2024-01-24T07:39:03.553Z,5.18
2024-01-24T07:41:30.246Z,5.50
2024-01-24T07:43:57.027Z,3.67
2024-01-24T07:46:23.870Z,5.85
2024-01-24T07:48:50.740Z,3.97
2024-01-24T07:51:17.671Z,3.95
2024-01-24T07:53:44.448Z,5.70
2024-01-24T07:56:19.697Z,3.00
2024-01-24T07:58:51.655Z,4.03
2024-01-24T08:01:18.584Z,5.33
2024-01-24T08:03:46.427Z,3.40
2024-01-24T08:06:16.125Z,3.50
2024-01-24T08:08:43.068Z,4.65
2024-01-24T08:11:13.221Z,4.43
2024-01-24T08:13:40.138Z,3.17
2024-01-24T08:16:07.003Z,4.90
2024-01-24T08:18:34.038Z,5.65
2024-01-24T08:21:00.786Z,3.80
2024-01-24T08:23:34.702Z,4.25
2024-01-24T08:26:10.570Z,3.70
2024-01-24T08:28:37.624Z,4.28
2024-01-24T08:31:05.010Z,3.97
2024-01-24T08:33:31.895Z,4.22
2024-01-24T08:35:58.616Z,3.70
2024-01-24T08:38:25.334Z,5.03
2024-01-24T08:40:58.085Z,3.03
2024-01-24T08:43:25.318Z,4.43
2024-01-24T08:45:53.516Z,4.65
2024-01-24T08:48:20.611Z,4.18
2024-01-24T08:50:48.682Z,4.33
2024-01-24T08:53:15.849Z,4.40
2024-01-24T08:56:12.706Z,5.55
2024-01-24T08:58:48.365Z,4.68
2024-01-24T09:01:15.676Z,3.70
2024-01-24T09:03:42.714Z,2.87
2024-01-24T09:06:10.019Z,4.63
2024-01-24T09:08:37.029Z,3.33
2024-01-24T09:11:03.830Z,5.95
2024-01-24T09:13:30.845Z,4.45
2024-01-24T09:16:00.414Z,3.50
2024-01-24T09:18:27.406Z,5.22
2024-01-24T09:20:54.278Z,2.97
2024-01-24T09:23:21.034Z,4.07
2024-01-24T09:25:47.875Z,4.13
2024-01-24T09:28:14.698Z,4.07
2024-01-24T09:30:42.571Z,4.28
2024-01-24T09:33:09.947Z,4.53
2024-01-24T09:35:37.085Z,4.35
2024-01-24T09:38:04.037Z,3.72
2024-01-24T09:40:31.208Z,3.43
2024-01-24T09:43:02.345Z,4.85
2024-01-24T09:45:31.954Z,3.85
2024-01-24T09:47:59.646Z,4.28
2024-01-24T09:50:28.054Z,5.05
2024-01-24T09:52:56.474Z,4.63
2024-01-24T09:55:25.012Z,3.72
2024-01-24T09:57:51.933Z,3.20
2024-01-24T10:00:19.024Z,4.95
2024-01-24T10:02:47.372Z,3.75
2024-01-24T10:05:19.923Z,2.90
2024-01-24T10:07:46.734Z,2.90
2024-01-24T10:10:14.428Z,2.38
2024-01-24T10:12:44.493Z,3.78
2024-01-24T10:15:11.989Z,2.63
2024-01-24T10:17:43.021Z,4.67
2024-01-24T10:20:13.579Z,4.15
2024-01-24T10:22:41.353Z,4.38
2024-01-24T10:25:08.790Z,2.50
2024-01-24T10:27:36.075Z,2.88
2024-01-24T10:30:03.399Z,2.07
2024-01-24T10:32:32.736Z,2.90
2024-01-24T10:34:59.573Z,4.53
2024-01-24T10:37:27.002Z,3.28
2024-01-24T10:39:56.856Z,3.10
2024-01-24T10:42:28.639Z,3.83
2024-01-24T10:44:56.827Z,2.78
2024-01-24T10:47:23.953Z,3.97
2024-01-24T10:49:51.695Z,2.85
2024-01-24T10:52:21.047Z,2.88
2024-01-24T10:54:49.777Z,5.10
2024-01-24T10:57:20.300Z,3.72
2024-01-24T10:59:50.996Z,4.03
2024-01-24T11:02:18.416Z,3.60
2024-01-24T11:04:46.984Z,2.53
2024-01-24T11:07:20.602Z,3.30
2024-01-24T11:10:10.627Z,2.83
2024-01-24T11:12:37.859Z,2.70
2024-01-24T11:15:05.584Z,3.05
2024-01-24T11:17:33.547Z,4.15
2024-01-24T11:20:04.920Z,3.40
2024-01-24T11:22:31.791Z,4.03
2024-01-24T11:24:58.667Z,2.80
2024-01-24T11:27:36.091Z,2.58
2024-01-24T11:30:07.393Z,2.53
2024-01-24T11:32:46.507Z,3.33
2024-01-24T11:35:32.038Z,3.47
2024-01-24T11:38:16.202Z,2.47
2024-01-24T11:40:53.040Z,2.13
2024-01-24T11:43:28.903Z,2.53
2024-01-24T11:45:58.246Z,2.67
2024-01-24T11:48:26.528Z,3.22
2024-01-24T11:51:03.690Z,2.15
2024-01-24T11:53:30.877Z,3.15
2024-01-24T11:55:59.684Z,3.90
2024-01-24T11:58:27.936Z,3.57
2024-01-24T12:01:09.007Z,2.45
2024-01-24T12:03:36.382Z,4.13
2024-01-24T12:06:04.263Z,2.05
2024-01-24T12:08:34.014Z,2.22
2024-01-24T12:11:00.855Z,3.37
2024-01-24T12:13:29.228Z,3.03
2024-01-24T12:15:57.356Z,2.50
2024-01-24T12:18:26.671Z,2.83
2024-01-24T12:20:56.994Z,3.75
2024-01-24T12:23:26.951Z,3.53
2024-01-24T12:25:54.804Z,3.03
2024-01-24T12:28:23.098Z,4.25
2024-01-24T12:30:52.714Z,3.83
2024-01-24T12:33:20.340Z,4.75
2024-01-24T12:35:51.074Z,4.43
2024-01-24T12:38:18.480Z,3.67
2024-01-24T12:40:53.323Z,4.10
2024-01-24T12:43:21.051Z,4.25
2024-01-24T12:45:48.104Z,2.30
2024-01-24T12:48:15.104Z,2.93
2024-01-24T12:50:43.417Z,3.42
2024-01-24T12:53:10.290Z,4.43
2024-01-24T12:55:37.000Z,4.50
2024-01-24T12:58:04.189Z,3.38
2024-01-24T13:00:31.008Z,3.53
2024-01-24T13:02:57.759Z,3.17
2024-01-24T13:05:32.195Z,4.47
2024-01-24T13:08:06.571Z,4.65
2024-01-24T13:10:33.359Z,3.95
2024-01-24T13:13:00.488Z,3.67
2024-01-24T13:15:29.544Z,4.57
2024-01-24T13:17:56.388Z,4.22
2024-01-24T13:20:23.023Z,4.07
2024-01-24T13:22:49.793Z,3.78
2024-01-24T13:25:16.480Z,3.03
2024-01-24T13:27:43.319Z,3.13
2024-01-24T13:30:11.647Z,2.60
2024-01-24T13:32:38.793Z,4.40
2024-01-24T13:35:05.927Z,4.35
2024-01-24T13:37:39.405Z,2.50
2024-01-24T13:40:12.912Z,3.00
2024-01-24T13:42:40.959Z,4.43
2024-01-24T13:45:08.178Z,4.85
2024-01-24T13:47:35.037Z,3.67
2024-01-24T13:50:02.220Z,4.17
2024-01-24T13:52:29.531Z,4.13
2024-01-24T13:54:57.031Z,4.15
2024-01-24T13:57:23.853Z,4.35
2024-01-24T13:59:50.698Z,4.28
2024-01-24T14:02:17.927Z,2.60
2024-01-24T14:04:44.891Z,4.05
2024-01-24T14:07:11.782Z,3.53
2024-01-24T14:09:40.509Z,3.85
2024-01-24T14:12:08.035Z,3.13
2024-01-24T14:14:35.009Z,2.30
2024-01-24T14:17:01.795Z,3.65
2024-01-24T14:19:28.687Z,4.80
2024-01-24T14:21:55.581Z,4.53
2024-01-24T14:24:22.406Z,4.53
2024-01-24T14:26:49.808Z,3.87
2024-01-24T14:29:16.778Z,3.38
2024-01-24T14:31:43.691Z,3.85
2024-01-24T14:34:10.781Z,3.72
2024-01-24T14:36:38.129Z,3.58
2024-01-24T14:39:05.420Z,3.80
2024-01-24T14:41:32.090Z,2.95
2024-01-24T14:43:58.839Z,2.80
2024-01-24T14:46:25.636Z,4.32
2024-01-24T14:48:52.555Z,5.57
2024-01-24T14:51:19.351Z,4.50
2024-01-24T14:53:46.039Z,4.03
2024-01-24T14:56:12.853Z,3.13
2024-01-24T14:58:39.695Z,3.63
2024-01-24T15:01:06.481Z,4.97
2024-01-24T15:03:33.300Z,4.33
2024-01-24T15:06:00.150Z,3.65
2024-01-24T15:08:26.825Z,3.10
2024-01-24T15:10:53.611Z,3.10
2024-01-24T15:13:20.474Z,2.75
2024-01-24T15:15:47.220Z,3.83
2024-01-24T15:18:14.224Z,2.05
2024-01-24T15:20:45.534Z,3.35
2024-01-24T15:23:20.302Z,4.15
2024-01-24T15:25:46.958Z,3.22
2024-01-24T15:28:13.867Z,4.33
2024-01-24T15:30:40.693Z,3.85
2024-01-24T15:33:07.586Z,4.05
2024-01-24T15:35:34.450Z,4.32
2024-01-24T15:38:01.353Z,3.38
2024-01-24T15:40:28.046Z,3.50
2024-01-24T15:42:54.779Z,3.90
2024-01-24T15:45:21.576Z,2.47
2024-01-24T15:47:48.539Z,4.47
2024-01-24T15:50:15.794Z,2.83
2024-01-24T15:52:42.544Z,3.10
2024-01-24T15:55:09.738Z,5.18
2024-01-24T15:57:36.593Z,3.92
2024-01-24T16:00:03.935Z,2.72
2024-01-24T16:02:31.377Z,3.10
2024-01-24T16:04:58.403Z,3.33
2024-01-24T16:07:25.425Z,2.85
2024-01-24T16:09:52.311Z,3.53
2024-01-24T16:12:19.603Z,3.38
2024-01-24T16:14:46.291Z,3.95
2024-01-24T16:17:12.998Z,4.10
2024-01-24T16:19:39.810Z,4.25
2024-01-24T16:22:06.751Z,2.92
2024-01-24T16:24:33.535Z,4.15
2024-01-24T16:27:00.272Z,2.42
2024-01-24T16:29:27.005Z,3.13
2024-01-24T16:31:53.943Z,1.98
2024-01-24T16:34:21.501Z,3.85
2024-01-24T16:36:48.380Z,1.45
2024-01-24T16:39:15.161Z,2.97
2024-01-24T16:41:41.853Z,3.23
2024-01-24T16:44:08.724Z,4.47
2024-01-24T16:46:35.378Z,3.35
2024-01-24T16:49:02.131Z,3.15
2024-01-24T16:51:28.910Z,3.38
2024-01-24T16:53:55.675Z,3.70
2024-01-24T16:56:22.445Z,3.55
2024-01-24T16:58:49.150Z,4.88
2024-01-24T17:01:16.287Z,4.15
2024-01-24T17:03:43.152Z,5.03
2024-01-24T17:06:10.008Z,3.57
2024-01-24T17:08:37.468Z,3.90
2024-01-24T17:11:04.373Z,3.20
2024-01-24T17:13:31.100Z,5.18
2024-01-24T17:15:58.006Z,3.03
2024-01-24T17:18:27.775Z,3.47
2024-01-24T17:20:54.698Z,2.67
2024-01-24T17:23:21.341Z,3.97
2024-01-24T17:25:48.030Z,4.55
2024-01-24T17:28:14.812Z,3.60
2024-01-24T17:30:41.586Z,3.37
2024-01-24T17:33:08.416Z,1.80
2024-01-24T17:35:37.880Z,3.60
2024-01-24T17:38:05.349Z,4.78
2024-01-24T17:40:31.998Z,3.60
2024-01-24T17:43:01.245Z,3.90
2024-01-24T17:45:28.012Z,2.45
2024-01-24T17:47:56.035Z,4.22
2024-01-24T17:50:22.888Z,3.80
2024-01-24T17:52:49.597Z,4.03
2024-01-24T17:55:17.464Z,4.60
2024-01-24T17:57:44.506Z,4.35
2024-01-24T18:00:11.838Z,3.50
2024-01-24T18:02:38.555Z,4.68
2024-01-24T18:05:07.131Z,3.00
2024-01-24T18:07:34.163Z,2.83
2024-01-24T18:10:01.074Z,4.15
2024-01-24T18:12:27.821Z,3.85
2024-01-24T18:14:57.432Z,3.88
2024-01-24T18:17:24.181Z,3.50
2024-01-24T18:19:51.416Z,2.97
2024-01-24T18:22:18.358Z,4.53
2024-01-24T18:24:45.003Z,4.30
2024-01-24T18:27:11.708Z,4.40
2024-01-24T18:29:38.719Z,3.10
2024-01-24T18:32:06.132Z,4.40
2024-01-24T18:34:33.410Z,3.72
2024-01-24T18:37:00.793Z,4.22
2024-01-24T18:39:27.653Z,3.88
2024-01-24T18:41:54.356Z,4.10
2024-01-24T18:44:21.045Z,3.77
2024-01-24T18:46:50.909Z,5.05
2024-01-24T18:49:17.791Z,4.15
2024-01-24T18:51:44.679Z,2.90
2024-01-24T18:54:11.647Z,5.45
2024-01-24T18:56:38.314Z,5.50
2024-01-24T18:59:05.221Z,4.93
2024-01-24T19:01:32.098Z,4.20
2024-01-24T19:04:00.507Z,4.20
2024-01-24T19:06:28.248Z,3.90
2024-01-24T19:08:55.207Z,2.87
2024-01-24T19:11:22.408Z,4.40
2024-01-24T19:13:49.195Z,4.13
2024-01-24T19:16:16.952Z,3.33
2024-01-24T19:18:43.739Z,3.30
2024-01-24T19:21:10.685Z,4.47
2024-01-24T19:23:37.353Z,4.13
2024-01-24T19:26:04.270Z,3.78
2024-01-24T19:28:30.943Z,4.82
2024-01-24T19:30:57.686Z,4.25
2024-01-24T19:33:24.475Z,3.57
2024-01-24T19:35:51.164Z,3.45
2024-01-24T19:38:18.039Z,3.88
2024-01-24T19:40:44.729Z,3.03
2024-01-24T19:43:11.641Z,3.33
2024-01-24T19:45:40.531Z,3.70
2024-01-24T19:48:07.574Z,3.80
2024-01-24T19:50:34.368Z,5.63
2024-01-24T19:53:01.108Z,3.45
2024-01-24T19:55:27.996Z,4.35
2024-01-24T19:57:55.406Z,3.53
2024-01-24T20:00:22.422Z,3.70
2024-01-24T20:02:49.130Z,5.47
2024-01-24T20:05:16.454Z,4.80
2024-01-24T20:07:43.402Z,4.13
2024-01-24T20:10:11.036Z,3.53
2024-01-24T20:12:37.873Z,4.88
2024-01-24T20:15:05.215Z,5.50
2024-01-24T20:17:32.051Z,4.38
2024-01-24T20:19:58.837Z,3.28
2024-01-24T20:22:26.473Z,3.93
2024-01-24T20:24:53.285Z,3.60
2024-01-24T20:27:20.040Z,3.05
2024-01-24T20:29:48.453Z,4.45
2024-01-24T20:32:15.515Z,2.97
2024-01-24T20:34:42.326Z,4.73
2024-01-24T20:37:09.358Z,5.28
2024-01-24T20:39:37.707Z,4.60
2024-01-24T20:42:10.776Z,4.18
2024-01-24T20:44:40.602Z,5.07
2024-01-24T20:47:07.429Z,4.43
2024-01-24T20:49:34.186Z,4.10
2024-01-24T20:52:00.972Z,4.82
2024-01-24T20:54:27.708Z,4.68
2024-01-24T20:56:54.521Z,3.55
2024-01-24T20:59:22.294Z,3.57
2024-01-24T21:01:51.041Z,3.10
2024-01-24T21:04:18.059Z,5.10
2024-01-24T21:06:45.811Z,3.45
2024-01-24T21:09:13.660Z,3.55
2024-01-24T21:11:40.403Z,3.83
2024-01-24T21:14:07.089Z,4.65
2024-01-24T21:16:35.001Z,5.22
2024-01-24T21:19:01.822Z,3.90
2024-01-24T21:21:28.593Z,3.80
2024-01-24T21:23:55.354Z,4.10
2024-01-24T21:26:22.318Z,3.20
2024-01-24T21:28:48.961Z,4.57
2024-01-24T21:31:15.973Z,5.03
2024-01-24T21:33:42.823Z,3.03
2024-01-24T21:36:09.872Z,4.20
2024-01-24T21:38:36.582Z,4.03
2024-01-24T21:41:03.359Z,4.85
2024-01-24T21:43:30.061Z,4.20
2024-01-24T21:45:56.683Z,2.70
2024-01-24T21:48:23.478Z,5.50
2024-01-24T21:50:50.162Z,3.58
2024-01-24T21:53:16.988Z,3.10
2024-01-24T21:55:43.840Z,4.28
2024-01-24T21:58:10.641Z,5.75
2024-01-24T22:00:37.352Z,4.40
2024-01-24T22:03:04.321Z,3.88
2024-01-24T22:05:31.102Z,4.30
2024-01-24T22:07:57.907Z,3.78
2024-01-24T22:10:24.623Z,3.63
2024-01-24T22:12:51.380Z,4.80
2024-01-24T22:15:18.480Z,4.78
2024-01-24T22:17:45.265Z,5.05
2024-01-24T22:20:12.380Z,3.40
2024-01-24T22:22:39.105Z,3.83
2024-01-24T22:25:08.338Z,4.80
2024-01-24T22:27:35.204Z,4.85
2024-01-24T22:30:02.020Z,4.55
2024-01-24T22:32:28.766Z,6.75
2024-01-24T22:34:55.658Z,3.33
2024-01-24T22:37:22.532Z,5.13
2024-01-24T22:39:49.298Z,3.97
2024-01-24T22:42:16.142Z,5.35
2024-01-24T22:44:42.802Z,4.95
2024-01-24T22:47:09.537Z,3.13
2024-01-24T22:49:36.363Z,3.07
2024-01-24T22:52:03.148Z,2.08
2024-01-24T22:54:30.060Z,3.22
2024-01-24T22:56:56.914Z,1.38
2024-01-24T22:59:23.733Z,2.72
2024-01-24T23:01:50.632Z,1.53
2024-01-24T23:04:17.679Z,2.33
2024-01-24T23:06:44.650Z,1.58
2024-01-24T23:09:11.429Z,1.55
2024-01-24T23:11:38.226Z,1.63
2024-01-24T23:14:04.946Z,2.03
2024-01-24T23:16:31.867Z,2.35
2024-01-24T23:18:58.923Z,2.72
2024-01-24T23:21:25.777Z,1.77
2024-01-24T23:23:52.475Z,1.42
2024-01-24T23:26:19.170Z,2.37
2024-01-24T23:28:45.934Z,3.00
2024-01-24T23:31:12.789Z,1.83
2024-01-24T23:33:39.586Z,1.58
2024-01-24T23:36:08.218Z,1.83
2024-01-24T23:38:35.056Z,1.70
2024-01-24T23:41:01.768Z,2.97
2024-01-24T23:43:28.430Z,2.45
2024-01-24T23:45:55.120Z,2.45
2024-01-24T23:48:21.973Z,1.73
2024-01-24T23:50:49.164Z,2.23
2024-01-24T23:53:16.625Z,1.10
2024-01-24T23:55:43.520Z,2.78
2024-01-24T23:58:10.298Z,1.95
